createdAt,value
2023-03-16T00:03:35.419Z,9.25
2023-03-16T00:08:39.488Z,10.90
2023-03-16T00:13:43.196Z,10.97
2023-03-16T00:18:46.136Z,9.88
2023-03-16T00:23:48.949Z,10.02
2023-03-16T00:28:54.679Z,9.52
2023-03-16T00:33:57.374Z,10.15
2023-03-16T00:39:00.264Z,13.50
2023-03-16T00:44:03.000Z,11.73
2023-03-16T00:49:05.844Z,11.43
2023-03-16T00:54:08.911Z,12.57
2023-03-16T00:59:13.394Z,36.78
2023-03-16T01:04:16.189Z,28.27
2023-03-16T01:09:19.052Z,20.35
2023-03-16T01:14:22.782Z,17.23
2023-03-16T01:19:25.596Z,11.25
2023-03-16T01:24:28.824Z,8.93
2023-03-16T01:29:32.464Z,9.00
2023-03-16T01:34:35.572Z,7.53
2023-03-16T01:39:39.212Z,8.07
2023-03-16T01:44:57.594Z,8.32
2023-03-16T01:50:07.897Z,9.57
2023-03-16T01:55:15.324Z,8.73
2023-03-16T02:06:05.366Z,8.68
2023-03-16T02:11:10.575Z,8.57
2023-03-16T02:16:27.188Z,8.50
2023-03-16T02:21:46.379Z,8.30
2023-03-16T02:26:54.245Z,9.60
2023-03-16T02:32:03.037Z,9.20
2023-03-16T02:42:12.919Z,9.52
2023-03-16T02:47:42.106Z,10.52
2023-03-16T02:52:45.140Z,11.00
2023-03-16T02:57:48.761Z,10.32
2023-03-16T03:02:53.075Z,11.10
2023-03-16T03:07:55.927Z,10.05
2023-03-16T03:12:59.651Z,10.40
2023-03-16T03:18:03.258Z,10.73
2023-03-16T03:23:07.395Z,10.93
2023-03-16T03:28:10.124Z,10.80
2023-03-16T03:33:13.364Z,9.90
2023-03-16T03:38:16.232Z,9.65
2023-03-16T03:43:21.510Z,11.35
2023-03-16T03:53:28.927Z,9.48
2023-03-16T03:58:49.914Z,11.13
2023-03-16T04:04:02.145Z,12.05
2023-03-16T04:09:05.876Z,11.40
2023-03-16T04:14:09.033Z,10.15
2023-03-16T04:19:14.388Z,10.73
2023-03-16T04:24:18.466Z,10.63
2023-03-16T04:29:21.501Z,11.00
2023-03-16T04:34:25.436Z,10.73
2023-03-16T04:39:32.211Z,10.88
2023-03-16T04:44:44.420Z,11.02
2023-03-16T04:49:51.835Z,14.25
2023-03-16T04:54:55.132Z,17.40
2023-03-16T04:59:57.964Z,15.07
2023-03-16T05:05:07.971Z,14.35
2023-03-16T05:10:14.506Z,13.48
2023-03-16T05:15:17.569Z,11.88
2023-03-16T05:20:26.333Z,10.07
2023-03-16T05:25:33.318Z,10.25
2023-03-16T05:30:39.888Z,8.85
2023-03-16T05:35:46.467Z,9.80
2023-03-16T05:40:53.387Z,9.48
2023-03-16T05:46:09.054Z,10.63
2023-03-16T05:51:14.553Z,10.57
2023-03-16T05:56:18.444Z,10.07
2023-03-16T06:01:22.733Z,9.98
2023-03-16T06:06:26.574Z,10.07
2023-03-16T06:11:41.179Z,9.23
2023-03-16T06:16:44.176Z,10.75
2023-03-16T06:21:47.095Z,9.25
2023-03-16T06:26:49.965Z,8.43
2023-03-16T06:31:55.029Z,7.13
2023-03-16T06:36:59.168Z,6.40
2023-03-16T06:42:04.817Z,6.72
2023-03-16T06:47:08.721Z,5.30
2023-03-16T06:52:14.280Z,7.20
2023-03-16T07:02:20.266Z,6.60
2023-03-16T07:07:24.856Z,6.13
2023-03-16T07:12:29.270Z,5.82
2023-03-16T07:17:32.736Z,7.28
2023-03-16T07:22:38.973Z,8.10
2023-03-16T07:32:52.133Z,6.55
2023-03-16T07:37:57.851Z,6.30
2023-03-16T07:43:01.542Z,5.75
2023-03-16T07:48:10.670Z,6.55
2023-03-16T07:53:23.888Z,6.97
2023-03-16T07:58:35.056Z,5.78
2023-03-16T08:03:38.094Z,4.80
2023-03-16T08:08:43.287Z,5.90
2023-03-16T08:13:54.858Z,4.90
2023-03-16T08:24:00.648Z,4.55
2023-03-16T08:29:04.228Z,5.45
2023-03-16T08:34:11.325Z,4.53
2023-03-16T08:39:19.165Z,4.32
2023-03-16T08:44:25.093Z,4.45
2023-03-16T08:49:29.880Z,4.30
2023-03-16T08:54:49.712Z,3.95
2023-03-16T08:59:59.349Z,4.35
2023-03-16T09:05:02.641Z,5.45
2023-03-16T09:10:07.403Z,5.57
2023-03-16T09:15:12.524Z,6.07
2023-03-16T09:20:33.228Z,5.63
2023-03-16T09:25:36.220Z,5.28
2023-03-16T09:30:38.893Z,5.43
2023-03-16T09:35:41.692Z,6.40
2023-03-16T09:40:47.057Z,5.05
2023-03-16T09:51:07.063Z,5.45
2023-03-16T09:56:23.247Z,6.55
2023-03-16T10:01:48.648Z,7.38
2023-03-16T10:07:01.337Z,6.65
2023-03-16T10:12:07.006Z,6.65
2023-03-16T10:17:33.628Z,6.43
2023-03-16T10:22:38.955Z,6.90
2023-03-16T10:27:45.216Z,6.90
2023-03-16T10:32:48.613Z,7.53
2023-03-16T10:37:53.237Z,6.97
2023-03-16T10:42:56.291Z,7.87
2023-03-16T10:48:15.777Z,6.50
2023-03-16T10:53:30.521Z,6.90
2023-03-16T10:58:38.008Z,6.95
2023-03-16T11:03:42.085Z,8.43
2023-03-16T11:08:46.514Z,7.28
2023-03-16T11:13:49.490Z,6.90
2023-03-16T11:18:58.366Z,7.75
2023-03-16T11:24:04.907Z,8.18
2023-03-16T11:29:19.189Z,8.73
2023-03-16T11:34:28.942Z,7.97
2023-03-16T11:39:40.739Z,9.13
2023-03-16T11:45:10.421Z,8.35
2023-03-16T11:50:18.996Z,7.18
2023-03-16T11:55:44.809Z,7.63
2023-03-16T12:01:09.495Z,12.90
2023-03-16T12:06:40.972Z,9.88
2023-03-16T12:11:52.577Z,10.73
2023-03-16T12:17:08.810Z,10.20
2023-03-16T12:22:17.636Z,10.27
2023-03-16T12:27:33.049Z,10.45
2023-03-16T12:38:08.629Z,9.40
2023-03-16T12:43:43.737Z,10.10
2023-03-16T12:48:54.893Z,11.93
2023-03-16T12:53:59.489Z,11.43
2023-03-16T12:59:06.079Z,14.50
2023-03-16T13:04:17.865Z,11.52
2023-03-16T13:09:24.672Z,12.30
2023-03-16T13:14:42.144Z,9.48
2023-03-16T13:19:48.161Z,10.40
2023-03-16T13:24:56.536Z,8.35
2023-03-16T13:30:02.382Z,8.63
2023-03-16T13:35:10.292Z,7.88
2023-03-16T13:40:25.560Z,8.80
2023-03-16T13:45:38.900Z,9.82
2023-03-16T13:50:43.003Z,10.60
2023-03-16T13:55:47.403Z,9.70
2023-03-16T14:00:50.357Z,10.47
2023-03-16T14:05:53.914Z,12.70
2023-03-16T14:11:01.473Z,11.75
2023-03-16T14:16:13.278Z,10.70
2023-03-16T14:21:18.773Z,9.48
2023-03-16T14:26:25.152Z,9.35
2023-03-16T14:31:40.138Z,8.52
2023-03-16T14:41:50.131Z,11.68
2023-03-16T14:46:57.367Z,13.45
2023-03-16T14:52:03.072Z,11.48
2023-03-16T14:57:06.411Z,8.77
2023-03-16T15:02:31.141Z,10.30
2023-03-16T15:07:45.776Z,10.40
2023-03-16T15:12:54.448Z,8.80
2023-03-16T15:17:57.305Z,6.35
2023-03-16T15:23:00.266Z,5.93
2023-03-16T15:28:16.349Z,6.60
2023-03-16T15:33:19.776Z,7.13
2023-03-16T15:38:28.007Z,8.13
2023-03-16T15:43:32.335Z,7.50
2023-03-16T15:48:35.134Z,7.17
2023-03-16T15:53:43.662Z,8.50
2023-03-16T15:58:47.195Z,8.70
2023-03-16T16:03:53.414Z,5.68
2023-03-16T16:08:56.494Z,6.70
2023-03-16T16:13:59.989Z,6.85
2023-03-16T16:19:02.809Z,6.78
2023-03-16T16:24:06.180Z,6.88
2023-03-16T16:29:22.721Z,8.13
2023-03-16T16:34:25.950Z,8.98
2023-03-16T16:39:28.842Z,9.05
2023-03-16T16:44:34.537Z,8.27
2023-03-16T16:49:39.056Z,7.55
2023-03-16T16:54:41.833Z,9.40
2023-03-16T16:59:47.430Z,8.63
2023-03-16T17:04:51.109Z,8.68
2023-03-16T17:09:53.830Z,8.20
2023-03-16T17:14:56.794Z,7.65
2023-03-16T17:19:59.832Z,8.95
2023-03-16T17:25:02.604Z,9.60
2023-03-16T17:30:15.076Z,9.38
2023-03-16T17:35:18.224Z,7.32
2023-03-16T17:40:24.266Z,7.13
2023-03-16T17:45:28.725Z,6.43
2023-03-16T17:50:32.644Z,6.18
2023-03-16T17:55:35.497Z,5.78
2023-03-16T18:00:39.948Z,5.53
2023-03-16T18:05:44.114Z,5.60
2023-03-16T18:10:48.505Z,4.33
2023-03-16T18:15:52.347Z,5.57
2023-03-16T18:20:57.284Z,5.22
2023-03-16T18:26:09.341Z,5.40
2023-03-16T18:31:21.705Z,5.32
2023-03-16T18:36:30.514Z,4.40
2023-03-16T18:41:34.945Z,4.75
2023-03-16T18:46:38.836Z,4.60
2023-03-16T18:51:43.722Z,4.28
2023-03-16T19:01:49.156Z,3.95
2023-03-16T19:06:54.461Z,3.90
2023-03-16T19:11:57.793Z,4.00
2023-03-16T19:17:00.832Z,3.53
2023-03-16T19:22:12.804Z,4.25
2023-03-16T19:27:26.514Z,4.10
2023-03-16T19:39:42.556Z,4.72
2023-03-16T19:44:48.545Z,4.03
2023-03-16T19:49:51.462Z,3.75
2023-03-16T19:54:54.516Z,4.07
2023-03-16T19:59:57.865Z,4.70
2023-03-16T20:05:00.610Z,4.30
2023-03-16T20:10:04.026Z,4.10
2023-03-16T20:15:07.594Z,4.03
2023-03-16T20:20:29.084Z,3.50
2023-03-16T20:25:33.131Z,4.22
2023-03-16T20:30:36.448Z,3.30
2023-03-16T20:35:39.118Z,3.78
2023-03-16T20:40:45.499Z,3.22
2023-03-16T20:45:48.501Z,3.35
2023-03-16T20:50:52.962Z,3.38
2023-03-16T20:55:56.767Z,3.45
2023-03-16T21:01:01.406Z,3.22
2023-03-16T21:06:10.497Z,3.55
2023-03-16T21:11:23.088Z,3.97
2023-03-16T21:16:26.212Z,4.97
2023-03-16T21:21:29.143Z,5.38
2023-03-16T21:26:33.479Z,4.72
2023-03-16T21:31:36.527Z,4.30
2023-03-16T21:36:39.280Z,3.75
2023-03-16T21:41:42.197Z,4.32
2023-03-16T21:46:47.566Z,4.38
2023-03-16T21:51:51.173Z,4.20
2023-03-16T21:56:53.949Z,3.92
2023-03-16T22:02:02.040Z,4.03
2023-03-16T22:07:12.827Z,4.00
2023-03-16T22:12:16.251Z,4.60
2023-03-16T22:17:22.805Z,3.67
2023-03-16T22:22:25.564Z,4.50
2023-03-16T22:27:30.430Z,4.00
2023-03-16T22:32:33.238Z,4.13
2023-03-16T22:37:36.432Z,4.65
2023-03-16T22:42:40.136Z,3.92
2023-03-16T22:47:42.895Z,3.92
2023-03-16T22:52:47.676Z,3.95
2023-03-16T22:58:01.124Z,4.25
2023-03-16T23:03:04.684Z,4.75
2023-03-16T23:08:13.373Z,5.68
2023-03-16T23:13:19.220Z,5.32
2023-03-16T23:18:26.503Z,5.25
2023-03-16T23:23:29.192Z,5.53
2023-03-16T23:28:32.061Z,5.55
2023-03-16T23:33:34.758Z,6.65
2023-03-16T23:38:37.815Z,7.07
2023-03-16T23:43:42.089Z,7.00
2023-03-16T23:48:46.325Z,7.45
2023-03-16T23:53:50.072Z,7.70
2023-03-16T23:58:52.965Z,7.63
